sensor_id;sensor_type;location;lat;lon;timestamp;temperature;humidity
6468;DHT22;3267;48.794;9.928;2023-07-09T04:03:18;23.80;49.80
6468;DHT22;3267;48.794;9.928;2023-07-09T04:05:44;25.80;51.20
6468;DHT22;3267;48.794;9.928;2023-07-09T04:08:10;23.70;49.80
6468;DHT22;3267;48.794;9.928;2023-07-09T04:10:36;23.70;50.00
6468;DHT22;3267;48.794;9.928;2023-07-09T04:13:01;23.60;50.50
6468;DHT22;3267;48.794;9.928;2023-07-09T04:15:27;23.60;51.20
6468;DHT22;3267;48.794;9.928;2023-07-09T04:17:53;23.60;51.40
6468;DHT22;3267;48.794;9.928;2023-07-09T04:20:18;23.60;50.70
6468;DHT22;3267;48.794;9.928;2023-07-09T04:22:44;23.60;50.40
6468;DHT22;3267;48.794;9.928;2023-07-09T04:25:10;24.10;50.50
6468;DHT22;3267;48.794;9.928;2023-07-09T04:27:37;23.80;50.10
6468;DHT22;3267;48.794;9.928;2023-07-09T04:30:03;23.90;49.90
6468;DHT22;3267;48.794;9.928;2023-07-09T04:32:30;23.80;49.70
6468;DHT22;3267;48.794;9.928;2023-07-09T04:34:56;23.90;49.50
6468;DHT22;3267;48.794;9.928;2023-07-09T04:37:22;24.10;49.60
6468;DHT22;3267;48.794;9.928;2023-07-09T04:39:47;24.20;49.60
6468;DHT22;3267;48.794;9.928;2023-07-09T04:42:15;24.20;50.20
6468;DHT22;3267;48.794;9.928;2023-07-09T04:44:41;24.40;49.80
6468;DHT22;3267;48.794;9.928;2023-07-09T04:47:06;24.40;50.10
6468;DHT22;3267;48.794;9.928;2023-07-09T04:49:32;24.50;50.00
6468;DHT22;3267;48.794;9.928;2023-07-09T04:51:58;24.90;50.30
6468;DHT22;3267;48.794;9.928;2023-07-09T04:54:25;25.30;50.50
6468;DHT22;3267;48.794;9.928;2023-07-09T04:56:51;24.60;49.90
6468;DHT22;3267;48.794;9.928;2023-07-09T04:59:16;24.60;49.70
6468;DHT22;3267;48.794;9.928;2023-07-09T05:01:42;26.90;51.10
6468;DHT22;3267;48.794;9.928;2023-07-09T05:04:08;24.80;49.60
6468;DHT22;3267;48.794;9.928;2023-07-09T05:06:34;26.20;50.60
6468;DHT22;3267;48.794;9.928;2023-07-09T05:09:00;24.90;49.80
6468;DHT22;3267;48.794;9.928;2023-07-09T05:11:26;26.30;50.60
6468;DHT22;3267;48.794;9.928;2023-07-09T05:13:52;25.00;49.80
6468;DHT22;3267;48.794;9.928;2023-07-09T05:16:17;24.90;49.80
6468;DHT22;3267;48.794;9.928;2023-07-09T05:18:45;25.80;50.30
6468;DHT22;3267;48.794;9.928;2023-07-09T05:21:11;24.90;49.90
6468;DHT22;3267;48.794;9.928;2023-07-09T05:23:36;25.40;50.10
6468;DHT22;3267;48.794;9.928;2023-07-09T05:26:03;24.90;49.80
6468;DHT22;3267;48.794;9.928;2023-07-09T05:28:30;25.00;49.80
6468;DHT22;3267;48.794;9.928;2023-07-09T05:30:55;26.60;50.80
6468;DHT22;3267;48.794;9.928;2023-07-09T05:33:21;25.00;49.70
6468;DHT22;3267;48.794;9.928;2023-07-09T05:35:47;26.30;50.60
6468;DHT22;3267;48.794;9.928;2023-07-09T05:38:14;25.10;49.90
6468;DHT22;3267;48.794;9.928;2023-07-09T05:40:40;25.10;50.00
6468;DHT22;3267;48.794;9.928;2023-07-09T05:43:06;26.70;51.10
6468;DHT22;3267;48.794;9.928;2023-07-09T05:45:32;25.30;50.30
6468;DHT22;3267;48.794;9.928;2023-07-09T05:47:58;25.30;50.30
6468;DHT22;3267;48.794;9.928;2023-07-09T05:50:24;25.40;50.30
6468;DHT22;3267;48.794;9.928;2023-07-09T05:52:50;25.40;50.30
6468;DHT22;3267;48.794;9.928;2023-07-09T05:55:15;25.50;50.30
6468;DHT22;3267;48.794;9.928;2023-07-09T05:57:41;25.50;50.20
6468;DHT22;3267;48.794;9.928;2023-07-09T06:00:07;25.70;50.20
6468;DHT22;3267;48.794;9.928;2023-07-09T06:02:34;25.60;50.20
6468;DHT22;3267;48.794;9.928;2023-07-09T06:05:00;25.60;50.30
6468;DHT22;3267;48.794;9.928;2023-07-09T06:07:26;25.60;51.50
6468;DHT22;3267;48.794;9.928;2023-07-09T06:09:51;25.60;52.20
6468;DHT22;3267;48.794;9.928;2023-07-09T06:12:18;25.70;51.70
6468;DHT22;3267;48.794;9.928;2023-07-09T06:14:45;25.70;51.40
6468;DHT22;3267;48.794;9.928;2023-07-09T06:17:11;25.70;51.50
6468;DHT22;3267;48.794;9.928;2023-07-09T06:19:37;25.80;51.20
6468;DHT22;3267;48.794;9.928;2023-07-09T06:22:03;25.90;51.20
6468;DHT22;3267;48.794;9.928;2023-07-09T06:24:29;25.90;51.00
6468;DHT22;3267;48.794;9.928;2023-07-09T06:26:54;26.10;51.00
6468;DHT22;3267;48.794;9.928;2023-07-09T06:29:20;26.10;51.20
6468;DHT22;3267;48.794;9.928;2023-07-09T06:31:46;26.00;52.10
6468;DHT22;3267;48.794;9.928;2023-07-09T06:34:11;26.10;50.90
6468;DHT22;3267;48.794;9.928;2023-07-09T06:36:37;26.20;51.70
6468;DHT22;3267;48.794;9.928;2023-07-09T06:39:03;26.30;52.00
6468;DHT22;3267;48.794;9.928;2023-07-09T06:41:29;26.30;51.90
6468;DHT22;3267;48.794;9.928;2023-07-09T06:43:58;26.40;51.40
6468;DHT22;3267;48.794;9.928;2023-07-09T06:46:23;26.50;51.10
6468;DHT22;3267;48.794;9.928;2023-07-09T06:48:49;26.50;50.90
6468;DHT22;3267;48.794;9.928;2023-07-09T06:51:15;26.60;50.80
6468;DHT22;3267;48.794;9.928;2023-07-09T06:53:41;26.70;51.20
6468;DHT22;3267;48.794;9.928;2023-07-09T06:56:08;26.70;51.20
6468;DHT22;3267;48.794;9.928;2023-07-09T06:58:36;26.80;51.10
6468;DHT22;3267;48.794;9.928;2023-07-09T07:01:03;26.90;51.40
6468;DHT22;3267;48.794;9.928;2023-07-09T07:03:31;27.00;50.90
6468;DHT22;3267;48.794;9.928;2023-07-09T07:05:57;27.10;50.70
6468;DHT22;3267;48.794;9.928;2023-07-09T07:08:24;27.10;50.40
6468;DHT22;3267;48.794;9.928;2023-07-09T07:10:55;27.20;50.70
6468;DHT22;3267;48.794;9.928;2023-07-09T07:13:28;27.30;50.40
6468;DHT22;3267;48.794;9.928;2023-07-09T07:15:54;27.40;50.20
6468;DHT22;3267;48.794;9.928;2023-07-09T07:18:20;27.40;49.80
6468;DHT22;3267;48.794;9.928;2023-07-09T07:20:46;27.50;51.10
6468;DHT22;3267;48.794;9.928;2023-07-09T07:23:12;27.50;50.60
6468;DHT22;3267;48.794;9.928;2023-07-09T07:25:37;27.60;50.10
6468;DHT22;3267;48.794;9.928;2023-07-09T07:28:03;27.70;50.50
6468;DHT22;3267;48.794;9.928;2023-07-09T07:30:32;27.70;50.50
6468;DHT22;3267;48.794;9.928;2023-07-09T07:32:58;27.80;50.00
6468;DHT22;3267;48.794;9.928;2023-07-09T07:35:24;27.80;50.60
6468;DHT22;3267;48.794;9.928;2023-07-09T07:37:50;27.80;49.90
6468;DHT22;3267;48.794;9.928;2023-07-09T07:40:15;28.00;49.70
6468;DHT22;3267;48.794;9.928;2023-07-09T07:42:41;28.10;50.00
6468;DHT22;3267;48.794;9.928;2023-07-09T07:45:07;28.10;50.30
6468;DHT22;3267;48.794;9.928;2023-07-09T07:47:34;28.20;49.80
6468;DHT22;3267;48.794;9.928;2023-07-09T07:50:00;28.30;50.90
6468;DHT22;3267;48.794;9.928;2023-07-09T07:52:27;28.30;50.10
6468;DHT22;3267;48.794;9.928;2023-07-09T07:54:52;28.40;50.70
6468;DHT22;3267;48.794;9.928;2023-07-09T07:57:18;28.50;50.70
6468;DHT22;3267;48.794;9.928;2023-07-09T07:59:44;28.60;49.90
6468;DHT22;3267;48.794;9.928;2023-07-09T08:02:13;28.70;49.80
6468;DHT22;3267;48.794;9.928;2023-07-09T08:04:39;28.80;49.70
6468;DHT22;3267;48.794;9.928;2023-07-09T08:07:09;29.00;49.70
6468;DHT22;3267;48.794;9.928;2023-07-09T08:09:35;29.00;49.70
6468;DHT22;3267;48.794;9.928;2023-07-09T08:12:02;29.20;49.80
6468;DHT22;3267;48.794;9.928;2023-07-09T08:14:34;29.20;49.60
6468;DHT22;3267;48.794;9.928;2023-07-09T08:17:00;29.20;50.10
6468;DHT22;3267;48.794;9.928;2023-07-09T08:19:26;29.30;50.00
6468;DHT22;3267;48.794;9.928;2023-07-09T08:21:54;29.30;50.30
6468;DHT22;3267;48.794;9.928;2023-07-09T08:24:20;29.40;49.60
6468;DHT22;3267;48.794;9.928;2023-07-09T08:26:45;29.40;49.40
6468;DHT22;3267;48.794;9.928;2023-07-09T08:29:11;29.60;49.40
6468;DHT22;3267;48.794;9.928;2023-07-09T08:31:37;29.70;49.80
6468;DHT22;3267;48.794;9.928;2023-07-09T08:34:05;29.80;49.30
6468;DHT22;3267;48.794;9.928;2023-07-09T08:36:31;29.90;49.30
6468;DHT22;3267;48.794;9.928;2023-07-09T08:38:57;30.00;49.20
6468;DHT22;3267;48.794;9.928;2023-07-09T08:50:09;30.40;48.60
6468;DHT22;3267;48.794;9.928;2023-07-09T08:52:44;30.60;48.50
6468;DHT22;3267;48.794;9.928;2023-07-09T08:55:24;30.70;48.40
6468;DHT22;3267;48.794;9.928;2023-07-09T08:57:58;30.80;48.30
6468;DHT22;3267;48.794;9.928;2023-07-09T09:00:46;30.90;48.10
6468;DHT22;3267;48.794;9.928;2023-07-09T09:05:49;31.20;48.30
6468;DHT22;3267;48.794;9.928;2023-07-09T09:08:33;31.40;48.40
6468;DHT22;3267;48.794;9.928;2023-07-09T09:11:14;31.50;48.20
6468;DHT22;3267;48.794;9.928;2023-07-09T09:13:41;31.60;48.20
6468;DHT22;3267;48.794;9.928;2023-07-09T09:16:17;31.70;47.50
6468;DHT22;3267;48.794;9.928;2023-07-09T09:18:47;31.80;47.10
6468;DHT22;3267;48.794;9.928;2023-07-09T09:21:35;31.70;45.90
6468;DHT22;3267;48.794;9.928;2023-07-09T09:24:19;31.80;45.50
6468;DHT22;3267;48.794;9.928;2023-07-09T09:26:48;31.70;45.90
6468;DHT22;3267;48.794;9.928;2023-07-09T09:29:16;31.80;46.00
6468;DHT22;3267;48.794;9.928;2023-07-09T09:31:50;31.90;49.30
6468;DHT22;3267;48.794;9.928;2023-07-09T09:34:28;32.20;51.40
6468;DHT22;3267;48.794;9.928;2023-07-09T09:36:55;32.30;49.80
6468;DHT22;3267;48.794;9.928;2023-07-09T09:39:24;32.40;48.40
6468;DHT22;3267;48.794;9.928;2023-07-09T09:41:53;32.50;47.60
6468;DHT22;3267;48.794;9.928;2023-07-09T09:44:24;32.60;48.10
6468;DHT22;3267;48.794;9.928;2023-07-09T09:46:50;32.70;47.90
6468;DHT22;3267;48.794;9.928;2023-07-09T09:49:16;32.80;47.90
6468;DHT22;3267;48.794;9.928;2023-07-09T09:51:45;32.80;47.50
6468;DHT22;3267;48.794;9.928;2023-07-09T09:54:17;33.00;47.40
6468;DHT22;3267;48.794;9.928;2023-07-09T09:56:44;33.00;46.70
6468;DHT22;3267;48.794;9.928;2023-07-09T09:59:18;33.10;46.30
6468;DHT22;3267;48.794;9.928;2023-07-09T10:01:44;33.20;46.40
6468;DHT22;3267;48.794;9.928;2023-07-09T10:04:16;33.50;46.80
6468;DHT22;3267;48.794;9.928;2023-07-09T10:07:10;33.30;44.60
6468;DHT22;3267;48.794;9.928;2023-07-09T10:15:00;33.40;45.00
6468;DHT22;3267;48.794;9.928;2023-07-09T10:20:32;33.60;46.10
6468;DHT22;3267;48.794;9.928;2023-07-09T10:25:39;33.70;44.60
6468;DHT22;3267;48.794;9.928;2023-07-09T10:41:57;34.30;45.90
6468;DHT22;3267;48.794;9.928;2023-07-09T10:44:38;34.40;45.30
6468;DHT22;3267;48.794;9.928;2023-07-09T10:47:13;34.40;43.60
6468;DHT22;3267;48.794;9.928;2023-07-09T10:49:42;34.40;43.30
6468;DHT22;3267;48.794;9.928;2023-07-09T10:52:22;34.40;44.40
6468;DHT22;3267;48.794;9.928;2023-07-09T10:55:09;34.40;43.80
6468;DHT22;3267;48.794;9.928;2023-07-09T10:58:22;34.50;42.30
6468;DHT22;3267;48.794;9.928;2023-07-09T11:00:37;34.50;41.80
6468;DHT22;3267;48.794;9.928;2023-07-09T11:03:21;34.50;44.00
6468;DHT22;3267;48.794;9.928;2023-07-09T11:05:49;34.60;43.80
6468;DHT22;3267;48.794;9.928;2023-07-09T11:08:20;34.70;43.30
6468;DHT22;3267;48.794;9.928;2023-07-09T11:11:03;34.80;43.80
6468;DHT22;3267;48.794;9.928;2023-07-09T11:13:40;34.80;42.50
6468;DHT22;3267;48.794;9.928;2023-07-09T11:16:08;34.90;43.00
6468;DHT22;3267;48.794;9.928;2023-07-09T11:18:37;34.90;42.70
6468;DHT22;3267;48.794;9.928;2023-07-09T11:21:17;34.90;42.40
6468;DHT22;3267;48.794;9.928;2023-07-09T11:23:51;34.90;43.10
6468;DHT22;3267;48.794;9.928;2023-07-09T11:26:34;34.90;42.70
6468;DHT22;3267;48.794;9.928;2023-07-09T11:31:43;34.90;40.70
6468;DHT22;3267;48.794;9.928;2023-07-09T11:37:00;34.90;41.70
6468;DHT22;3267;48.794;9.928;2023-07-09T11:44:54;35.10;41.60
6468;DHT22;3267;48.794;9.928;2023-07-09T11:47:28;35.20;42.00
6468;DHT22;3267;48.794;9.928;2023-07-09T11:50:05;35.40;42.40
6468;DHT22;3267;48.794;9.928;2023-07-09T11:55:48;35.60;42.40
6468;DHT22;3267;48.794;9.928;2023-07-09T11:58:18;35.70;41.20
6468;DHT22;3267;48.794;9.928;2023-07-09T12:00:49;35.80;40.70
6468;DHT22;3267;48.794;9.928;2023-07-09T12:05:53;35.90;41.20
6468;DHT22;3267;48.794;9.928;2023-07-09T12:08:38;36.00;41.20
6468;DHT22;3267;48.794;9.928;2023-07-09T12:11:05;36.20;41.70
6468;DHT22;3267;48.794;9.928;2023-07-09T12:13:38;36.20;41.50
6468;DHT22;3267;48.794;9.928;2023-07-09T12:16:04;36.40;42.30
6468;DHT22;3267;48.794;9.928;2023-07-09T12:18:29;36.50;42.20
6468;DHT22;3267;48.794;9.928;2023-07-09T12:20:55;36.60;41.90
6468;DHT22;3267;48.794;9.928;2023-07-09T12:23:28;36.70;41.90
6468;DHT22;3267;48.794;9.928;2023-07-09T12:25:55;36.80;41.90
6468;DHT22;3267;48.794;9.928;2023-07-09T12:28:25;36.80;41.60
6468;DHT22;3267;48.794;9.928;2023-07-09T12:30:52;36.90;41.70
6468;DHT22;3267;48.794;9.928;2023-07-09T12:33:21;37.00;41.70
6468;DHT22;3267;48.794;9.928;2023-07-09T12:35:49;37.10;41.80
6468;DHT22;3267;48.794;9.928;2023-07-09T12:38:23;37.20;41.80
6468;DHT22;3267;48.794;9.928;2023-07-09T12:40:50;37.30;41.90
6468;DHT22;3267;48.794;9.928;2023-07-09T12:43:30;37.40;42.50
6468;DHT22;3267;48.794;9.928;2023-07-09T12:45:58;37.30;40.90
6468;DHT22;3267;48.794;9.928;2023-07-09T12:48:27;37.30;41.30
6468;DHT22;3267;48.794;9.928;2023-07-09T12:50:56;37.40;41.50
6468;DHT22;3267;48.794;9.928;2023-07-09T12:53:24;37.50;41.20
6468;DHT22;3267;48.794;9.928;2023-07-09T12:55:58;37.60;41.50
6468;DHT22;3267;48.794;9.928;2023-07-09T12:58:33;37.80;41.30
6468;DHT22;3267;48.794;9.928;2023-07-09T13:01:12;37.80;41.10
6468;DHT22;3267;48.794;9.928;2023-07-09T13:03:39;38.00;41.40
6468;DHT22;3267;48.794;9.928;2023-07-09T13:06:30;38.10;40.60
6468;DHT22;3267;48.794;9.928;2023-07-09T13:08:58;38.20;41.30
6468;DHT22;3267;48.794;9.928;2023-07-09T13:11:25;38.20;41.40
6468;DHT22;3267;48.794;9.928;2023-07-09T13:13:56;38.10;41.00
6468;DHT22;3267;48.794;9.928;2023-07-09T13:16:21;38.00;40.90
6468;DHT22;3267;48.794;9.928;2023-07-09T13:18:47;37.90;41.30
6468;DHT22;3267;48.794;9.928;2023-07-09T13:21:16;37.80;41.40
6468;DHT22;3267;48.794;9.928;2023-07-09T13:23:42;37.70;41.50
6468;DHT22;3267;48.794;9.928;2023-07-09T13:26:08;37.80;41.70
6468;DHT22;3267;48.794;9.928;2023-07-09T13:28:34;37.80;41.30
6468;DHT22;3267;48.794;9.928;2023-07-09T13:33:32;38.30;40.70
6468;DHT22;3267;48.794;9.928;2023-07-09T13:35:58;38.70;40.60
6468;DHT22;3267;48.794;9.928;2023-07-09T13:38:24;39.20;40.40
6468;DHT22;3267;48.794;9.928;2023-07-09T13:40:57;39.50;40.40
6468;DHT22;3267;48.794;9.928;2023-07-09T13:43:29;39.80;39.80
6468;DHT22;3267;48.794;9.928;2023-07-09T13:45:55;39.90;39.20
6468;DHT22;3267;48.794;9.928;2023-07-09T13:48:25;39.90;39.60
6468;DHT22;3267;48.794;9.928;2023-07-09T13:50:52;40.20;39.00
6468;DHT22;3267;48.794;9.928;2023-07-09T13:53:22;40.40;38.80
6468;DHT22;3267;48.794;9.928;2023-07-09T13:55:51;40.70;38.90
6468;DHT22;3267;48.794;9.928;2023-07-09T13:58:20;41.00;39.20
6468;DHT22;3267;48.794;9.928;2023-07-09T14:00:47;41.00;38.10
6468;DHT22;3267;48.794;9.928;2023-07-09T14:03:20;40.90;38.80
6468;DHT22;3267;48.794;9.928;2023-07-09T14:05:46;41.10;39.10
6468;DHT22;3267;48.794;9.928;2023-07-09T14:08:12;41.50;38.60
6468;DHT22;3267;48.794;9.928;2023-07-09T14:10:41;41.70;38.50
6468;DHT22;3267;48.794;9.928;2023-07-09T14:13:12;42.00;38.40
6468;DHT22;3267;48.794;9.928;2023-07-09T14:15:39;42.40;38.40
6468;DHT22;3267;48.794;9.928;2023-07-09T14:18:12;42.60;38.20
6468;DHT22;3267;48.794;9.928;2023-07-09T14:20:39;42.60;37.30
6468;DHT22;3267;48.794;9.928;2023-07-09T14:23:05;42.60;37.20
6468;DHT22;3267;48.794;9.928;2023-07-09T14:25:30;42.80;36.80
6468;DHT22;3267;48.794;9.928;2023-07-09T14:27:56;43.00;37.20
6468;DHT22;3267;48.794;9.928;2023-07-09T14:30:24;43.30;37.40
6468;DHT22;3267;48.794;9.928;2023-07-09T14:32:51;43.60;36.30
6468;DHT22;3267;48.794;9.928;2023-07-09T14:35:22;43.80;36.20
6468;DHT22;3267;48.794;9.928;2023-07-09T14:37:51;44.00;36.70
6468;DHT22;3267;48.794;9.928;2023-07-09T14:40:18;44.20;37.40
6468;DHT22;3267;48.794;9.928;2023-07-09T14:42:45;44.30;36.60
6468;DHT22;3267;48.794;9.928;2023-07-09T14:45:21;44.30;35.40
6468;DHT22;3267;48.794;9.928;2023-07-09T14:47:49;44.20;37.40
6468;DHT22;3267;48.794;9.928;2023-07-09T14:50:15;44.20;36.30
6468;DHT22;3267;48.794;9.928;2023-07-09T14:52:42;44.40;35.60
6468;DHT22;3267;48.794;9.928;2023-07-09T14:55:21;44.70;36.70
6468;DHT22;3267;48.794;9.928;2023-07-09T14:57:47;45.00;36.40
6468;DHT22;3267;48.794;9.928;2023-07-09T15:00:20;45.30;35.50
6468;DHT22;3267;48.794;9.928;2023-07-09T15:02:51;45.60;35.30
6468;DHT22;3267;48.794;9.928;2023-07-09T15:05:23;45.80;35.90
6468;DHT22;3267;48.794;9.928;2023-07-09T15:07:50;45.70;36.00
6468;DHT22;3267;48.794;9.928;2023-07-09T15:10:18;45.70;34.10
6468;DHT22;3267;48.794;9.928;2023-07-09T15:12:47;45.50;34.80
6468;DHT22;3267;48.794;9.928;2023-07-09T15:15:17;45.20;34.30
6468;DHT22;3267;48.794;9.928;2023-07-09T15:17:44;45.00;34.20
6468;DHT22;3267;48.794;9.928;2023-07-09T15:20:25;44.80;35.00
6468;DHT22;3267;48.794;9.928;2023-07-09T15:22:57;44.50;35.50
6468;DHT22;3267;48.794;9.928;2023-07-09T15:25:26;44.30;34.40
6468;DHT22;3267;48.794;9.928;2023-07-09T15:27:52;44.10;35.30
6468;DHT22;3267;48.794;9.928;2023-07-09T15:30:24;44.10;35.80
6468;DHT22;3267;48.794;9.928;2023-07-09T15:32:51;44.00;36.50
6468;DHT22;3267;48.794;9.928;2023-07-09T15:35:19;43.80;36.00
6468;DHT22;3267;48.794;9.928;2023-07-09T15:37:45;43.70;34.80
6468;DHT22;3267;48.794;9.928;2023-07-09T15:40:26;43.70;36.70
6468;DHT22;3267;48.794;9.928;2023-07-09T15:43:00;43.90;36.50
6468;DHT22;3267;48.794;9.928;2023-07-09T15:45:28;44.30;35.40
6468;DHT22;3267;48.794;9.928;2023-07-09T15:47:54;44.60;36.40
6468;DHT22;3267;48.794;9.928;2023-07-09T15:50:23;45.00;35.80
6468;DHT22;3267;48.794;9.928;2023-07-09T15:52:50;45.20;34.40
6468;DHT22;3267;48.794;9.928;2023-07-09T15:55:25;45.20;34.50
6468;DHT22;3267;48.794;9.928;2023-07-09T15:57:52;45.00;33.60
6468;DHT22;3267;48.794;9.928;2023-07-09T16:00:20;44.90;34.50
6468;DHT22;3267;48.794;9.928;2023-07-09T16:02:48;44.90;34.10
6468;DHT22;3267;48.794;9.928;2023-07-09T16:07:51;45.30;34.60
6468;DHT22;3267;48.794;9.928;2023-07-09T16:10:17;45.50;33.90
6468;DHT22;3267;48.794;9.928;2023-07-09T16:12:45;45.50;34.20
6468;DHT22;3267;48.794;9.928;2023-07-09T16:15:13;45.40;34.50
6468;DHT22;3267;48.794;9.928;2023-07-09T16:17:41;45.30;33.70
6468;DHT22;3267;48.794;9.928;2023-07-09T16:20:10;44.80;33.10
6468;DHT22;3267;48.794;9.928;2023-07-09T16:22:41;44.30;33.70
6468;DHT22;3267;48.794;9.928;2023-07-09T16:25:55;43.80;34.10
6468;DHT22;3267;48.794;9.928;2023-07-09T16:28:02;43.30;34.20
6468;DHT22;3267;48.794;9.928;2023-07-09T16:30:29;42.90;35.00
6468;DHT22;3267;48.794;9.928;2023-07-09T16:32:56;42.50;35.90
6468;DHT22;3267;48.794;9.928;2023-07-09T16:35:24;42.20;35.70
6468;DHT22;3267;48.794;9.928;2023-07-09T16:37:51;41.90;36.00
6468;DHT22;3267;48.794;9.928;2023-07-09T16:40:20;41.70;36.00
6468;DHT22;3267;48.794;9.928;2023-07-09T16:42:48;41.40;36.30
6468;DHT22;3267;48.794;9.928;2023-07-09T16:45:15;41.30;36.70
6468;DHT22;3267;48.794;9.928;2023-07-09T16:47:42;41.20;36.30
6468;DHT22;3267;48.794;9.928;2023-07-09T16:50:20;41.10;37.30
6468;DHT22;3267;48.794;9.928;2023-07-09T16:52:46;41.30;37.10
6468;DHT22;3267;48.794;9.928;2023-07-09T16:55:14;41.60;38.00
6468;DHT22;3267;48.794;9.928;2023-07-09T16:57:40;42.00;35.90
6468;DHT22;3267;48.794;9.928;2023-07-09T17:00:27;42.50;36.60
6468;DHT22;3267;48.794;9.928;2023-07-09T17:02:55;42.90;38.40
6468;DHT22;3267;48.794;9.928;2023-07-09T17:05:23;43.20;35.10
6468;DHT22;3267;48.794;9.928;2023-07-09T17:07:49;43.40;35.90
6468;DHT22;3267;48.794;9.928;2023-07-09T17:10:15;43.40;35.40
6468;DHT22;3267;48.794;9.928;2023-07-09T17:12:41;43.40;35.10
6468;DHT22;3267;48.794;9.928;2023-07-09T17:15:24;43.30;35.40
6468;DHT22;3267;48.794;9.928;2023-07-09T17:17:52;43.10;36.20
6468;DHT22;3267;48.794;9.928;2023-07-09T17:20:18;43.00;34.80
6468;DHT22;3267;48.794;9.928;2023-07-09T17:22:45;42.90;35.20
6468;DHT22;3267;48.794;9.928;2023-07-09T17:30:42;43.20;35.70
6468;DHT22;3267;48.794;9.928;2023-07-09T17:33:08;43.20;35.70
6468;DHT22;3267;48.794;9.928;2023-07-09T17:35:37;43.10;35.50
6468;DHT22;3267;48.794;9.928;2023-07-09T17:38:04;42.80;35.10
6468;DHT22;3267;48.794;9.928;2023-07-09T17:40:32;42.60;35.10
6468;DHT22;3267;48.794;9.928;2023-07-09T17:42:58;42.30;35.80
6468;DHT22;3267;48.794;9.928;2023-07-09T17:45:25;41.90;36.70
6468;DHT22;3267;48.794;9.928;2023-07-09T17:47:51;41.60;36.50
6468;DHT22;3267;48.794;9.928;2023-07-09T17:50:20;41.30;36.30
6468;DHT22;3267;48.794;9.928;2023-07-09T17:52:46;40.90;36.10
6468;DHT22;3267;48.794;9.928;2023-07-09T17:55:13;40.50;37.60
6468;DHT22;3267;48.794;9.928;2023-07-09T17:57:40;40.20;37.20
6468;DHT22;3267;48.794;9.928;2023-07-09T18:00:17;39.90;37.50
6468;DHT22;3267;48.794;9.928;2023-07-09T18:02:45;39.60;37.70
6468;DHT22;3267;48.794;9.928;2023-07-09T18:05:27;39.30;37.90
6468;DHT22;3267;48.794;9.928;2023-07-09T18:07:54;39.10;38.10
6468;DHT22;3267;48.794;9.928;2023-07-09T18:10:22;39.00;38.50
6468;DHT22;3267;48.794;9.928;2023-07-09T18:12:48;38.70;38.30
6468;DHT22;3267;48.794;9.928;2023-07-09T18:15:24;38.50;38.80
6468;DHT22;3267;48.794;9.928;2023-07-09T18:17:52;38.30;38.80
6468;DHT22;3267;48.794;9.928;2023-07-09T18:20:20;38.00;37.10
6468;DHT22;3267;48.794;9.928;2023-07-09T18:22:46;37.70;37.90
6468;DHT22;3267;48.794;9.928;2023-07-09T18:25:12;37.60;38.20
6468;DHT22;3267;48.794;9.928;2023-07-09T18:27:42;37.30;37.20
6468;DHT22;3267;48.794;9.928;2023-07-09T18:30:23;37.20;37.90
6468;DHT22;3267;48.794;9.928;2023-07-09T18:32:50;37.00;39.20
6468;DHT22;3267;48.794;9.928;2023-07-09T18:35:31;36.90;39.50
6468;DHT22;3267;48.794;9.928;2023-07-09T18:37:59;36.70;40.30
6468;DHT22;3267;48.794;9.928;2023-07-09T18:40:26;36.70;40.10
6468;DHT22;3267;48.794;9.928;2023-07-09T18:42:53;36.40;38.60
6468;DHT22;3267;48.794;9.928;2023-07-09T18:45:22;36.20;39.80
6468;DHT22;3267;48.794;9.928;2023-07-09T18:47:48;35.80;38.60
6468;DHT22;3267;48.794;9.928;2023-07-09T18:50:28;35.80;40.10
6468;DHT22;3267;48.794;9.928;2023-07-09T18:52:55;35.70;39.50
6468;DHT22;3267;48.794;9.928;2023-07-09T18:55:24;35.40;39.50
6468;DHT22;3267;48.794;9.928;2023-07-09T18:57:50;35.50;39.80
6468;DHT22;3267;48.794;9.928;2023-07-09T19:00:18;35.30;40.50
6468;DHT22;3267;48.794;9.928;2023-07-09T19:02:46;35.20;40.70
6468;DHT22;3267;48.794;9.928;2023-07-09T19:05:22;35.10;40.60
6468;DHT22;3267;48.794;9.928;2023-07-09T19:07:50;35.00;40.90
6468;DHT22;3267;48.794;9.928;2023-07-09T19:10:23;35.30;41.50
6468;DHT22;3267;48.794;9.928;2023-07-09T19:12:52;34.80;40.90
6468;DHT22;3267;48.794;9.928;2023-07-09T19:15:20;34.70;40.80
6468;DHT22;3267;48.794;9.928;2023-07-09T19:17:46;34.70;41.40
6468;DHT22;3267;48.794;9.928;2023-07-09T19:20:17;34.60;41.20
6468;DHT22;3267;48.794;9.928;2023-07-09T19:22:43;34.40;40.90
6468;DHT22;3267;48.794;9.928;2023-07-09T19:25:28;34.40;41.60
6468;DHT22;3267;48.794;9.928;2023-07-09T19:27:55;34.40;41.90
6468;DHT22;3267;48.794;9.928;2023-07-09T19:30:23;34.30;41.70
6468;DHT22;3267;48.794;9.928;2023-07-09T19:32:58;34.10;41.20
6468;DHT22;3267;48.794;9.928;2023-07-09T19:35:26;33.90;41.60
6468;DHT22;3267;48.794;9.928;2023-07-09T19:37:53;33.80;41.50
6468;DHT22;3267;48.794;9.928;2023-07-09T19:40:24;33.80;41.30
6468;DHT22;3267;48.794;9.928;2023-07-09T19:42:52;33.70;41.80
6468;DHT22;3267;48.794;9.928;2023-07-09T19:45:28;33.70;41.50
6468;DHT22;3267;48.794;9.928;2023-07-09T19:47:57;33.50;41.70
6468;DHT22;3267;48.794;9.928;2023-07-09T19:50:29;33.30;40.30
6468;DHT22;3267;48.794;9.928;2023-07-09T19:52:57;33.30;41.20
6468;DHT22;3267;48.794;9.928;2023-07-09T19:55:29;33.10;41.30
6468;DHT22;3267;48.794;9.928;2023-07-09T19:58:01;33.00;39.70
6468;DHT22;3267;48.794;9.928;2023-07-09T20:00:28;33.00;41.30
6468;DHT22;3267;48.794;9.928;2023-07-09T20:02:56;32.80;39.60
6468;DHT22;3267;48.794;9.928;2023-07-09T20:05:23;32.70;40.60
6468;DHT22;3267;48.794;9.928;2023-07-09T20:07:54;32.90;42.10
6468;DHT22;3267;48.794;9.928;2023-07-09T20:10:23;32.90;41.40
6468;DHT22;3267;48.794;9.928;2023-07-09T20:12:51;32.90;41.40
6468;DHT22;3267;48.794;9.928;2023-07-09T20:15:25;32.80;41.20
6468;DHT22;3267;48.794;9.928;2023-07-09T20:17:57;32.70;40.50
6468;DHT22;3267;48.794;9.928;2023-07-09T20:20:25;32.70;41.40
6468;DHT22;3267;48.794;9.928;2023-07-09T20:22:52;32.60;41.00
6468;DHT22;3267;48.794;9.928;2023-07-09T20:25:24;32.60;41.60
6468;DHT22;3267;48.794;9.928;2023-07-09T20:27:51;32.50;41.00
6468;DHT22;3267;48.794;9.928;2023-07-09T20:30:19;32.50;42.40
6468;DHT22;3267;48.794;9.928;2023-07-09T20:32:45;32.50;41.60
6468;DHT22;3267;48.794;9.928;2023-07-09T20:35:20;32.60;42.40
6468;DHT22;3267;48.794;9.928;2023-07-09T20:37:50;32.60;41.70
6468;DHT22;3267;48.794;9.928;2023-07-09T20:40:25;32.50;41.90
6468;DHT22;3267;48.794;9.928;2023-07-09T20:42:54;32.50;42.10
6468;DHT22;3267;48.794;9.928;2023-07-09T20:45:23;32.30;42.10
6468;DHT22;3267;48.794;9.928;2023-07-09T20:47:51;32.40;41.80
6468;DHT22;3267;48.794;9.928;2023-07-09T20:50:20;32.30;41.80
6468;DHT22;3267;48.794;9.928;2023-07-09T20:52:47;32.20;42.30
6468;DHT22;3267;48.794;9.928;2023-07-09T20:55:16;32.10;41.50
6468;DHT22;3267;48.794;9.928;2023-07-09T20:57:44;32.10;42.00
6468;DHT22;3267;48.794;9.928;2023-07-09T21:00:16;32.00;41.60
6468;DHT22;3267;48.794;9.928;2023-07-09T21:02:42;31.80;41.50
6468;DHT22;3267;48.794;9.928;2023-07-09T21:05:08;31.70;40.90
6468;DHT22;3267;48.794;9.928;2023-07-09T21:07:36;31.60;41.60
6468;DHT22;3267;48.794;9.928;2023-07-09T21:10:03;31.60;41.60
6468;DHT22;3267;48.794;9.928;2023-07-09T21:12:29;31.50;41.40
6468;DHT22;3267;48.794;9.928;2023-07-09T21:14:55;31.40;40.80
6468;DHT22;3267;48.794;9.928;2023-07-09T21:17:21;31.20;40.30
6468;DHT22;3267;48.794;9.928;2023-07-09T21:19:50;31.00;40.30